createdAt,value
2018-01-29T00:02:01.527Z,103688.82
2018-01-29T00:05:03.510Z,103695.31
2018-01-29T00:08:05.398Z,103693.14
2018-01-29T00:11:07.310Z,103693.34
2018-01-29T00:14:09.203Z,103690.90
2018-01-29T00:17:11.090Z,103693.06
2018-01-29T00:20:12.997Z,103690.57
2018-01-29T00:23:15.015Z,103693.32
2018-01-29T00:26:17.008Z,103694.84
2018-01-29T00:29:18.979Z,103692.47
2018-01-29T00:32:20.879Z,103687.70
2018-01-29T00:35:22.802Z,103691.24
2018-01-29T00:38:24.787Z,103688.11
2018-01-29T00:41:26.683Z,103685.34
2018-01-29T00:44:28.667Z,103687.82
2018-01-29T00:47:30.668Z,103688.83
2018-01-29T00:50:32.579Z,103689.64
2018-01-29T00:53:34.578Z,103687.17
2018-01-29T00:56:36.571Z,103688.52
2018-01-29T00:59:38.672Z,103686.79
2018-01-29T01:02:40.654Z,103689.62
2018-01-29T01:05:42.563Z,103687.32
2018-01-29T01:08:44.461Z,103687.65
2018-01-29T01:11:46.355Z,103682.89
2018-01-29T01:14:48.343Z,103682.44
2018-01-29T01:17:50.247Z,103684.07
2018-01-29T01:20:52.131Z,103682.13
2018-01-29T01:23:54.040Z,103679.66
2018-01-29T01:26:55.926Z,103687.61
2018-01-29T01:29:57.840Z,103682.66
2018-01-29T01:32:59.826Z,103684.65
2018-01-29T01:36:01.728Z,103688.37
2018-01-29T01:39:03.671Z,103692.76
2018-01-29T01:42:05.623Z,103692.49
2018-01-29T01:45:07.523Z,103683.79
2018-01-29T01:48:09.527Z,103685.19
2018-01-29T01:51:11.423Z,103677.38
2018-01-29T01:54:13.299Z,103674.68
2018-01-29T01:57:15.206Z,103669.50
2018-01-29T02:00:17.203Z,103660.24
2018-01-29T02:03:19.156Z,103657.40
2018-01-29T02:06:21.116Z,103647.53
2018-01-29T02:09:23.091Z,103647.13
2018-01-29T02:12:24.990Z,103642.83
2018-01-29T02:15:26.874Z,103638.10
2018-01-29T02:18:28.793Z,103641.75
2018-01-29T02:21:30.771Z,103645.26
2018-01-29T02:24:32.679Z,103643.63
2018-01-29T02:27:34.569Z,103643.48
2018-01-29T02:30:36.472Z,103641.78
2018-01-29T02:33:38.368Z,103640.73
2018-01-29T02:36:40.364Z,103630.40
2018-01-29T02:39:42.260Z,103625.41
2018-01-29T02:42:44.159Z,103619.50
2018-01-29T02:45:46.146Z,103616.41
2018-01-29T02:48:48.035Z,103620.98
2018-01-29T02:51:49.960Z,103624.54
2018-01-29T02:54:51.939Z,103621.30
2018-01-29T02:57:53.824Z,103618.67
2018-01-29T03:00:55.722Z,103613.70
2018-01-29T03:03:57.659Z,103612.99
2018-01-29T03:06:59.623Z,103612.81
2018-01-29T03:10:01.611Z,103608.76
2018-01-29T03:13:03.523Z,103603.05
2018-01-29T03:16:05.416Z,103606.73
2018-01-29T03:19:07.304Z,103612.75
2018-01-29T03:22:09.200Z,103609.94
2018-01-29T03:25:11.106Z,103615.64
2018-01-29T03:28:13.099Z,103612.63
2018-01-29T03:31:15.106Z,103613.61
2018-01-29T03:34:17.086Z,103615.60
2018-01-29T03:37:18.996Z,103601.52
2018-01-29T03:40:20.991Z,103593.54
2018-01-29T03:43:22.908Z,103597.08
2018-01-29T03:46:24.895Z,103597.75
2018-01-29T03:49:26.895Z,103598.19
2018-01-29T03:52:28.910Z,103602.21
2018-01-29T03:55:32.452Z,103602.58
2018-01-29T03:58:34.422Z,103603.62
2018-01-29T04:01:36.418Z,103600.48
2018-01-29T04:04:38.310Z,103598.76
2018-01-29T04:07:40.210Z,103586.59
2018-01-29T04:10:43.103Z,103580.45
2018-01-29T04:13:45.015Z,103576.33
2018-01-29T04:16:46.914Z,103568.55
2018-01-29T04:19:48.920Z,103560.05
2018-01-29T04:22:50.906Z,103562.08
2018-01-29T04:25:52.811Z,103554.71
2018-01-29T04:28:54.703Z,103550.16
2018-01-29T04:31:56.603Z,103548.89
2018-01-29T04:34:58.599Z,103547.35
2018-01-29T04:38:00.599Z,103530.92
2018-01-29T04:41:02.831Z,103523.06
2018-01-29T04:44:04.839Z,103517.06
2018-01-29T04:47:06.795Z,103519.82
2018-01-29T04:50:08.695Z,103518.04
2018-01-29T04:53:10.590Z,103508.14
2018-01-29T04:56:12.570Z,103509.19
2018-01-29T04:59:14.473Z,103519.46
2018-01-29T05:02:16.403Z,103524.72
2018-01-29T05:05:18.362Z,103526.79
2018-01-29T05:08:20.267Z,103517.64
2018-01-29T05:11:22.178Z,103522.07
2018-01-29T05:14:24.141Z,103526.12
2018-01-29T05:17:26.101Z,103526.61
2018-01-29T05:20:27.999Z,103525.75
2018-01-29T05:23:29.987Z,103530.01
2018-01-29T05:26:31.892Z,103534.42
2018-01-29T05:29:33.891Z,103534.57
2018-01-29T05:32:35.816Z,103537.21
2018-01-29T05:35:37.808Z,103528.50
2018-01-29T05:38:39.779Z,103528.51
2018-01-29T05:41:41.783Z,103537.80
2018-01-29T05:44:43.683Z,103535.52
2018-01-29T05:47:45.675Z,103536.68
2018-01-29T05:50:47.582Z,103534.41
2018-01-29T05:53:49.558Z,103535.07
2018-01-29T05:56:51.466Z,103527.38
2018-01-29T05:59:53.444Z,103518.64
2018-01-29T06:02:55.374Z,103519.32
2018-01-29T06:05:57.194Z,103520.55
2018-01-29T06:09:00.327Z,103515.66
2018-01-29T06:12:02.195Z,103523.65
2018-01-29T06:15:04.303Z,103521.58
2018-01-29T06:18:06.258Z,103518.16
2018-01-29T06:21:08.146Z,103516.07
2018-01-29T06:24:10.039Z,103518.98
2018-01-29T06:27:11.943Z,103520.09
2018-01-29T06:30:13.824Z,103522.65
2018-01-29T06:33:15.863Z,103522.22
2018-01-29T06:36:17.765Z,103522.96
2018-01-29T06:39:19.647Z,103522.70
2018-01-29T06:42:21.530Z,103517.89
2018-01-29T06:45:23.419Z,103507.55
2018-01-29T06:48:25.308Z,103507.71
2018-01-29T06:51:27.186Z,103514.71
2018-01-29T06:54:30.067Z,103509.44
2018-01-29T06:57:31.952Z,103507.41
2018-01-29T07:00:33.846Z,103505.72
2018-01-29T07:03:35.727Z,103509.47
2018-01-29T07:06:37.622Z,103512.21
2018-01-29T07:09:39.499Z,103510.11
2018-01-29T07:12:41.411Z,103506.97
2018-01-29T07:15:43.303Z,103499.63
2018-01-29T07:18:45.174Z,103494.52
2018-01-29T07:21:47.048Z,103504.77
2018-01-29T07:24:48.950Z,103508.83
2018-01-29T07:27:50.838Z,103505.88
2018-01-29T07:30:52.739Z,103507.14
2018-01-29T07:33:54.638Z,103501.46
2018-01-29T07:36:56.515Z,103503.25
2018-01-29T07:39:58.398Z,103502.07
2018-01-29T07:43:00.283Z,103500.55
2018-01-29T07:46:02.172Z,103492.43
2018-01-29T07:49:04.056Z,103492.19
2018-01-29T07:52:05.949Z,103493.00
2018-01-29T07:55:07.824Z,103489.36
2018-01-29T07:58:09.700Z,103492.43
2018-01-29T08:01:11.587Z,103492.43
2018-01-29T08:04:13.480Z,103489.68
2018-01-29T08:07:15.364Z,103486.75
2018-01-29T08:10:17.290Z,103488.47
2018-01-29T08:13:19.296Z,103490.12
2018-01-29T08:16:21.172Z,103489.81
2018-01-29T08:19:23.052Z,103479.78
2018-01-29T08:22:24.940Z,103472.26
2018-01-29T08:25:26.821Z,103474.77
2018-01-29T08:28:29.587Z,103471.05
2018-01-29T08:31:31.472Z,103471.18
2018-01-29T08:34:33.363Z,103460.59
2018-01-29T08:37:35.240Z,103451.13
2018-01-29T08:40:37.128Z,103450.20
2018-01-29T08:43:39.020Z,103446.92
2018-01-29T08:46:40.904Z,103438.81
2018-01-29T08:49:42.787Z,103434.94
2018-01-29T08:52:44.675Z,103438.02
2018-01-29T08:55:46.557Z,103439.71
2018-01-29T08:58:48.441Z,103443.12
2018-01-29T09:01:50.358Z,103445.73
2018-01-29T09:04:52.244Z,103440.69
2018-01-29T09:07:54.136Z,103442.71
2018-01-29T09:10:56.016Z,103445.24
2018-01-29T09:13:57.912Z,103441.03
2018-01-29T09:16:59.808Z,103440.65
2018-01-29T09:20:01.700Z,103428.11
2018-01-29T09:23:03.592Z,103433.44
2018-01-29T09:26:05.472Z,103426.17
2018-01-29T09:29:07.532Z,103429.04
2018-01-29T09:32:09.364Z,103422.22
2018-01-29T09:35:11.293Z,103424.62
2018-01-29T09:38:13.180Z,103419.07
2018-01-29T09:41:15.308Z,103421.57
2018-01-29T09:44:17.184Z,103422.53
2018-01-29T09:47:19.072Z,103415.75
2018-01-29T09:50:20.956Z,103405.77
2018-01-29T09:53:22.836Z,103396.04
2018-01-29T09:56:24.716Z,103406.16
2018-01-29T09:59:26.604Z,103416.16
2018-01-29T10:02:28.680Z,103417.08
2018-01-29T10:05:30.567Z,103422.30
2018-01-29T10:08:32.563Z,103414.18
2018-01-29T10:11:34.432Z,103405.85
2018-01-29T10:14:36.383Z,103403.90
2018-01-29T10:17:38.301Z,103392.51
2018-01-29T10:20:40.168Z,103398.13
2018-01-29T10:23:42.036Z,103384.18
2018-01-29T10:26:43.936Z,103383.95
2018-01-29T10:29:45.807Z,103384.65
2018-01-29T10:32:47.687Z,103371.67
2018-01-29T10:35:49.592Z,103367.56
2018-01-29T10:38:51.483Z,103361.18
2018-01-29T10:41:53.360Z,103358.31
2018-01-29T10:44:55.240Z,103355.46
2018-01-29T10:47:57.131Z,103348.28
2018-01-29T10:50:58.995Z,103345.65
2018-01-29T10:54:00.878Z,103347.18
2018-01-29T10:57:02.740Z,103350.41
2018-01-29T11:00:04.635Z,103333.32
2018-01-29T11:03:06.507Z,103332.65
2018-01-29T11:06:08.407Z,103330.49
2018-01-29T11:09:10.295Z,103318.85
2018-01-29T11:12:12.212Z,103318.00
2018-01-29T11:15:14.106Z,103312.59
2018-01-29T11:18:15.992Z,103307.13
2018-01-29T11:21:17.876Z,103308.40
2018-01-29T11:24:20.113Z,103308.74
2018-01-29T11:27:21.991Z,103306.20
2018-01-29T11:30:23.875Z,103305.02
2018-01-29T11:33:25.767Z,103304.75
2018-01-29T11:36:27.638Z,103295.74
2018-01-29T11:39:29.519Z,103294.15
2018-01-29T11:42:31.401Z,103294.28
2018-01-29T11:45:33.276Z,103280.85
2018-01-29T11:48:35.175Z,103272.46
2018-01-29T11:51:37.055Z,103267.82
2018-01-29T11:54:38.934Z,103272.69
2018-01-29T11:57:40.815Z,103270.01
2018-01-29T12:00:42.719Z,103263.14
2018-01-29T12:03:44.591Z,103262.81
2018-01-29T12:06:46.475Z,103252.39
2018-01-29T12:09:48.379Z,103246.77
2018-01-29T12:12:50.316Z,103244.88
2018-01-29T12:15:52.158Z,103235.98
2018-01-29T12:18:54.039Z,103236.29
2018-01-29T12:21:55.917Z,103234.13
2018-01-29T12:24:57.859Z,103226.69
2018-01-29T12:27:59.733Z,103216.07
2018-01-29T12:31:01.648Z,103216.07
2018-01-29T12:34:03.523Z,103211.20
2018-01-29T12:37:05.394Z,103195.61
2018-01-29T12:40:07.287Z,103196.26
2018-01-29T12:43:09.168Z,103185.15
2018-01-29T12:46:11.039Z,103188.51
2018-01-29T12:49:12.944Z,103176.15
2018-01-29T12:52:14.835Z,103176.05
2018-01-29T12:55:16.707Z,103167.51
2018-01-29T12:58:18.599Z,103155.00
2018-01-29T13:01:20.483Z,103149.41
2018-01-29T13:04:22.627Z,103149.33
2018-01-29T13:07:24.503Z,103145.47
2018-01-29T13:10:26.539Z,103137.93
2018-01-29T13:13:28.435Z,103144.38
2018-01-29T13:16:30.330Z,103132.86
2018-01-29T13:19:32.211Z,103125.99
2018-01-29T13:22:34.086Z,103116.54
2018-01-29T13:25:35.959Z,103107.39
2018-01-29T13:28:37.833Z,103106.32
2018-01-29T13:31:39.710Z,103102.76
2018-01-29T13:34:41.595Z,103102.60
2018-01-29T13:37:43.595Z,103096.48
2018-01-29T13:40:45.463Z,103088.75
2018-01-29T13:43:47.338Z,103088.54
2018-01-29T13:46:49.216Z,103091.25
2018-01-29T13:49:51.103Z,103087.84
2018-01-29T13:52:52.978Z,103083.78
2018-01-29T13:55:55.179Z,103077.90
2018-01-29T13:58:57.063Z,103076.47
2018-01-29T14:01:58.939Z,103073.90
2018-01-29T14:05:01.078Z,103070.80
2018-01-29T14:08:02.954Z,103072.55
2018-01-29T14:11:04.830Z,103070.28
2018-01-29T14:14:06.726Z,103073.43
2018-01-29T14:17:08.593Z,103074.23
2018-01-29T14:20:10.467Z,103079.99
2018-01-29T14:23:12.345Z,103080.69
2018-01-29T14:26:14.233Z,103072.55
2018-01-29T14:29:16.119Z,103060.97
2018-01-29T14:32:18.050Z,103065.86
2018-01-29T14:35:19.986Z,103055.45
2018-01-29T14:38:21.865Z,103055.21
2018-01-29T14:41:23.822Z,103057.40
2018-01-29T14:44:25.703Z,103054.94
2018-01-29T14:47:27.587Z,103048.82
2018-01-29T14:50:29.495Z,103042.70
2018-01-29T14:53:31.380Z,103041.41
2018-01-29T14:56:33.259Z,103045.44
2018-01-29T14:59:35.147Z,103042.36
2018-01-29T15:02:37.015Z,103040.00
2018-01-29T15:05:38.904Z,103035.28
2018-01-29T15:08:40.880Z,103031.23
2018-01-29T15:11:42.755Z,103035.99
2018-01-29T15:14:44.639Z,103028.88
2018-01-29T15:17:46.523Z,103031.59
2018-01-29T15:20:48.404Z,103031.93
2018-01-29T15:23:50.281Z,103026.23
2018-01-29T15:26:52.165Z,103023.87
2018-01-29T15:29:54.043Z,103019.41
2018-01-29T15:32:55.914Z,103015.54
2018-01-29T15:35:57.799Z,103023.19
2018-01-29T15:38:59.862Z,103023.06
2018-01-29T15:42:01.747Z,103024.05
2018-01-29T15:45:03.631Z,103023.29
2018-01-29T15:48:05.515Z,103023.89
2018-01-29T15:51:07.390Z,103021.13
2018-01-29T15:54:09.266Z,103031.75
2018-01-29T15:57:11.142Z,103027.24
2018-01-29T16:00:13.842Z,103025.99
2018-01-29T16:03:15.773Z,103029.46
2018-01-29T16:06:17.636Z,103033.20
2018-01-29T16:09:19.523Z,103021.52
2018-01-29T16:12:21.424Z,103021.02
2018-01-29T16:15:23.309Z,103019.77
2018-01-29T16:18:25.255Z,103019.67
2018-01-29T16:21:27.142Z,103022.96
2018-01-29T16:24:29.028Z,103026.85
2018-01-29T16:27:30.910Z,103020.58
2018-01-29T16:30:32.799Z,103014.03
2018-01-29T16:33:34.691Z,103016.62
2018-01-29T16:36:36.591Z,103015.93
2018-01-29T16:39:38.563Z,103015.83
2018-01-29T16:42:40.450Z,103020.09
2018-01-29T16:45:42.346Z,103020.58
2018-01-29T16:48:44.243Z,103013.90
2018-01-29T16:51:46.129Z,103009.40
2018-01-29T16:54:48.022Z,103002.48
2018-01-29T16:57:49.933Z,103009.42
2018-01-29T17:00:51.863Z,103012.33
2018-01-29T17:03:53.774Z,103009.35
2018-01-29T17:06:55.671Z,103001.67
2018-01-29T17:09:57.579Z,102996.59
2018-01-29T17:12:59.471Z,102998.36
2018-01-29T17:16:01.359Z,103002.87
2018-01-29T17:19:03.264Z,103007.40
2018-01-29T17:22:05.140Z,103001.14
2018-01-29T17:25:07.036Z,102998.82
2018-01-29T17:28:08.919Z,102995.45
2018-01-29T17:31:10.907Z,102990.24
2018-01-29T17:34:12.795Z,102986.44
2018-01-29T17:37:14.703Z,102989.70
2018-01-29T17:40:16.656Z,102979.32
2018-01-29T17:43:18.595Z,102986.56
2018-01-29T17:46:20.483Z,102983.31
2018-01-29T17:49:23.382Z,102984.48
2018-01-29T17:52:25.324Z,102986.80
2018-01-29T17:55:27.215Z,102992.29
2018-01-29T17:58:29.083Z,102988.43
2018-01-29T18:01:31.234Z,102982.14
2018-01-29T18:04:33.111Z,102986.41
2018-01-29T18:07:35.007Z,102984.43
2018-01-29T18:10:36.883Z,102990.46
2018-01-29T18:13:38.753Z,102991.73
2018-01-29T18:16:40.706Z,102991.39
2018-01-29T18:19:42.579Z,102995.22
2018-01-29T18:22:44.463Z,102999.74
2018-01-29T18:25:46.372Z,103005.90
2018-01-29T18:28:48.263Z,103004.40
2018-01-29T18:31:50.157Z,102998.01
2018-01-29T18:34:52.043Z,103001.01
2018-01-29T18:37:53.929Z,103011.31
2018-01-29T18:40:55.815Z,103010.21
2018-01-29T18:43:57.677Z,103009.07
2018-01-29T18:46:59.584Z,103015.39
2018-01-29T18:50:01.488Z,103025.25
2018-01-29T18:53:03.375Z,103021.56
2018-01-29T18:56:05.244Z,103030.36
2018-01-29T18:59:07.136Z,103022.31
2018-01-29T19:02:09.023Z,103019.87
2018-01-29T19:05:10.904Z,103034.10
2018-01-29T19:08:12.818Z,103034.84
2018-01-29T19:11:14.694Z,103028.34
2018-01-29T19:14:17.501Z,103040.77
2018-01-29T19:17:19.375Z,103045.74
2018-01-29T19:20:21.362Z,103046.17
2018-01-29T19:23:23.254Z,103036.00
2018-01-29T19:26:25.131Z,103019.60
2018-01-29T19:29:27.123Z,103020.71
2018-01-29T19:32:29.003Z,103010.12
2018-01-29T19:35:30.904Z,102999.66
2018-01-29T19:38:32.838Z,103006.72
2018-01-29T19:41:35.052Z,103001.79
2018-01-29T19:44:37.106Z,102996.47
2018-01-29T19:47:38.995Z,103005.15
2018-01-29T19:50:40.889Z,102996.82
2018-01-29T19:53:42.783Z,103012.01
2018-01-29T19:56:44.655Z,103005.10
2018-01-29T19:59:46.535Z,103002.91
2018-01-29T20:02:48.406Z,103012.18
2018-01-29T20:05:50.286Z,103000.00
2018-01-29T20:08:52.171Z,103006.33
2018-01-29T20:11:54.147Z,103004.52
2018-01-29T20:14:56.043Z,103007.38
2018-01-29T20:17:57.934Z,103015.26
2018-01-29T20:20:59.814Z,103023.07
2018-01-29T20:24:01.716Z,103024.10
2018-01-29T20:27:03.604Z,103024.51
2018-01-29T20:30:05.514Z,103027.54
2018-01-29T20:33:07.403Z,103029.56
2018-01-29T20:36:09.579Z,103035.26
2018-01-29T20:39:11.459Z,103043.81
2018-01-29T20:42:13.339Z,103035.70
2018-01-29T20:45:15.234Z,103045.07
2018-01-29T20:48:17.198Z,103038.75
2018-01-29T20:51:19.083Z,103038.85
2018-01-29T20:54:20.988Z,103043.53
2018-01-29T20:57:22.867Z,103045.18
2018-01-29T21:00:24.763Z,103045.89
2018-01-29T21:03:26.663Z,103050.59
2018-01-29T21:06:28.559Z,103056.36
2018-01-29T21:09:30.452Z,103055.42
2018-01-29T21:12:32.411Z,103057.21
2018-01-29T21:15:34.276Z,103053.10
2018-01-29T21:18:36.151Z,103055.68
2018-01-29T21:21:38.022Z,103062.24
2018-01-29T21:24:39.933Z,103065.40
2018-01-29T21:27:41.804Z,103064.73
2018-01-29T21:30:43.715Z,103064.40
2018-01-29T21:33:45.769Z,103068.29
2018-01-29T21:36:47.711Z,103066.28
2018-01-29T21:39:49.619Z,103066.60
2018-01-29T21:42:51.550Z,103066.60
2018-01-29T21:45:53.518Z,103061.74
2018-01-29T21:48:55.500Z,103062.21
2018-01-29T21:51:57.515Z,103062.33
2018-01-29T21:54:59.410Z,103069.20
2018-01-29T21:58:01.308Z,103081.01
2018-01-29T22:01:03.325Z,103081.41
2018-01-29T22:04:05.310Z,103078.51
2018-01-29T22:07:07.204Z,103081.32
2018-01-29T22:10:09.111Z,103081.64
2018-01-29T22:13:11.103Z,103075.87
2018-01-29T22:16:13.103Z,103077.63
2018-01-29T22:19:15.004Z,103078.35
2018-01-29T22:22:16.951Z,103075.37
2018-01-29T22:25:18.880Z,103090.28
2018-01-29T22:28:20.796Z,103095.76
2018-01-29T22:31:22.778Z,103107.31
2018-01-29T22:34:24.699Z,103112.17
2018-01-29T22:37:26.597Z,103116.45
2018-01-29T22:40:28.503Z,103108.68
2018-01-29T22:43:30.484Z,103119.71
2018-01-29T22:46:32.379Z,103124.91
2018-01-29T22:49:34.275Z,103118.50
2018-01-29T22:52:36.179Z,103122.59
2018-01-29T22:55:38.162Z,103123.78
2018-01-29T22:58:40.072Z,103121.83
2018-01-29T23:01:41.958Z,103119.71
2018-01-29T23:04:43.924Z,103123.97
2018-01-29T23:07:45.863Z,103124.45
2018-01-29T23:10:47.783Z,103119.32
2018-01-29T23:13:49.755Z,103117.27
2018-01-29T23:16:51.658Z,103126.54
2018-01-29T23:19:53.552Z,103131.58
2018-01-29T23:22:55.551Z,103137.87
2018-01-29T23:25:57.542Z,103142.25
2018-01-29T23:28:59.439Z,103145.27
2018-01-29T23:32:01.342Z,103141.19
2018-01-29T23:35:03.230Z,103142.04
2018-01-29T23:38:05.137Z,103139.08
2018-01-29T23:41:07.033Z,103141.04
2018-01-29T23:44:08.922Z,103128.74
2018-01-29T23:47:10.839Z,103120.97
2018-01-29T23:50:12.815Z,103125.27
2018-01-29T23:53:14.719Z,103118.14
2018-01-29T23:56:16.615Z,103120.99
2018-01-29T23:59:18.503Z,103124.34
